Time;durP1;ratioP1;P1;durP2;ratioP2;P2;SDS_P1;SDS_P2;PMS_P1;PMS_P2;Temp;Humidity;BMP_temperature;BMP_pressure;BME280_temperature;BME280_humidity;BME280_pressure;Samples;Min_cycle;Max_cycle;Signal;HPM_P1;HPM_P2
2022/01/26 06:00:20;;;;;;;27.03;22.57;;;4.70;97.20;;;;;;1727235;28;20189;-75
2022/01/26 06:01:12;;;;;;;27.67;23.50;;;4.60;97.20;;;;;;1723458;28;20707;-75
2022/01/26 06:02:04;;;;;;;27.33;22.15;;;4.60;97.20;;;;;;1720829;28;20636;-75
2022/01/26 06:02:55;;;;;;;25.35;21.73;;;4.60;97.20;;;;;;1720910;28;20202;-74
2022/01/26 06:03:47;;;;;;;26.17;22.20;;;4.60;97.20;;;;;;1720830;28;20680;-76
2022/01/26 06:04:37;;;;;;;24.17;21.13;;;4.60;97.20;;;;;;1720786;28;20229;-75
2022/01/26 06:05:29;;;;;;;26.97;22.53;;;4.60;97.20;;;;;;1720793;28;20205;-75
2022/01/26 06:06:20;;;;;;;24.38;21.48;;;4.60;97.20;;;;;;1720933;28;20205;-75
2022/01/26 06:07:12;;;;;;;25.50;21.67;;;4.50;97.20;;;;;;1720865;28;20201;-75
2022/01/26 06:08:03;;;;;;;30.77;23.58;;;4.50;97.20;;;;;;1720580;28;20843;-76
2022/01/26 06:08:55;;;;;;;27.05;22.60;;;4.50;97.20;;;;;;1720779;28;20205;-75
2022/01/26 06:09:45;;;;;;;26.50;23.05;;;4.50;97.20;;;;;;1723203;28;20212;-75
2022/01/26 06:10:37;;;;;;;25.83;21.67;;;4.50;97.20;;;;;;1726678;28;20193;-75
2022/01/26 06:11:28;;;;;;;27.60;23.17;;;4.50;97.20;;;;;;1727537;28;20204;-76
2022/01/26 06:12:20;;;;;;;27.40;22.47;;;4.50;97.20;;;;;;1727744;28;20305;-77
2022/01/26 06:13:10;;;;;;;23.63;20.92;;;4.50;97.20;;;;;;1727918;28;20845;-77
2022/01/26 06:14:02;;;;;;;29.63;24.63;;;4.50;97.20;;;;;;1721953;28;20581;-78
2022/01/26 06:14:53;;;;;;;25.48;22.38;;;4.50;97.20;;;;;;1720020;28;20240;-77
2022/01/26 06:15:47;;;;;;;25.10;21.93;;;4.50;97.20;;;;;;1720854;28;20200;-77
2022/01/26 06:16:39;;;;;;;25.30;22.02;;;4.50;97.20;;;;;;1721034;28;20291;-77
2022/01/26 06:17:30;;;;;;;26.20;22.35;;;4.50;97.20;;;;;;1720942;28;20223;-78
2022/01/26 06:18:22;;;;;;;30.40;23.50;;;4.50;97.20;;;;;;1720582;28;20204;-78
2022/01/26 06:19:12;;;;;;;27.83;22.52;;;4.50;97.20;;;;;;1720439;28;20453;-77
2022/01/26 06:20:05;;;;;;;28.23;23.10;;;4.50;97.20;;;;;;1720836;28;20668;-78
2022/01/26 06:20:57;;;;;;;26.17;22.70;;;4.50;97.20;;;;;;1721176;28;20683;-77
2022/01/26 06:21:48;;;;;;;25.65;21.65;;;4.50;97.20;;;;;;1720500;28;20205;-78
2022/01/26 06:22:40;;;;;;;27.13;22.47;;;4.40;97.20;;;;;;1720308;28;20209;-77
2022/01/26 06:23:30;;;;;;;27.35;22.40;;;4.50;97.20;;;;;;1720457;28;20235;-77
2022/01/26 06:24:22;;;;;;;28.37;22.60;;;4.50;97.20;;;;;;1726384;28;20204;-77
2022/01/26 06:25:15;;;;;;;29.08;22.48;;;4.50;97.20;;;;;;1727279;28;20238;-78
2022/01/26 06:26:07;;;;;;;28.10;22.83;;;4.50;97.20;;;;;;1727081;28;20207;-77
2022/01/26 06:26:57;;;;;;;27.17;22.23;;;4.50;97.20;;;;;;1727850;28;20215;-78
2022/01/26 06:27:52;;;;;;;27.10;22.27;;;4.50;97.20;;;;;;1727705;28;20283;-78
2022/01/26 06:28:43;;;;;;;28.38;22.55;;;4.50;97.20;;;;;;1726632;28;20201;-75
2022/01/26 06:29:34;;;;;;;26.40;22.13;;;4.50;97.20;;;;;;1727748;28;20200;-77
2022/01/26 06:30:26;;;;;;;29.48;24.05;;;4.50;97.20;;;;;;1727790;28;20215;-78
2022/01/26 06:31:19;;;;;;;28.55;22.60;;;4.50;97.20;;;;;;1727349;28;20295;-77
2022/01/26 06:32:10;;;;;;;27.65;23.63;;;4.50;97.20;;;;;;1727587;28;20204;-77
2022/01/26 06:33:02;;;;;;;28.35;23.13;;;4.40;97.20;;;;;;1727577;28;20208;-77
2022/01/26 06:33:53;;;;;;;29.45;23.73;;;4.40;97.20;;;;;;1727379;28;20215;-78
2022/01/26 06:34:46;;;;;;;31.75;24.30;;;4.40;97.20;;;;;;1726875;28;20221;-77
2022/01/26 06:35:37;;;;;;;30.10;24.65;;;4.40;97.20;;;;;;1727208;28;20212;-78
2022/01/26 06:36:29;;;;;;;29.70;23.98;;;4.40;97.20;;;;;;1726849;28;20232;-78
2022/01/26 06:37:19;;;;;;;29.42;23.60;;;4.30;97.20;;;;;;1726893;28;20694;-78
2022/01/26 06:38:11;;;;;;;31.87;24.37;;;4.30;97.20;;;;;;1726771;28;20700;-78
2022/01/26 06:39:03;;;;;;;30.45;24.23;;;4.30;97.20;;;;;;1726830;28;20443;-75
2022/01/26 06:39:54;;;;;;;29.25;22.88;;;4.20;97.20;;;;;;1726411;28;20279;-75
2022/01/26 06:40:45;;;;;;;25.70;21.70;;;4.20;97.20;;;;;;1726680;28;20208;-76
2022/01/26 06:41:38;;;;;;;27.80;22.40;;;4.10;97.20;;;;;;1726858;28;20287;-76
2022/01/26 06:42:34;;;;;;;26.08;22.38;;;4.10;97.20;;;;;;1726586;28;20204;-76
2022/01/26 06:43:28;;;;;;;28.92;22.15;;;4.10;97.20;;;;;;1726703;28;20247;-76
2022/01/26 06:44:25;;;;;;;29.95;23.48;;;4.10;97.20;;;;;;1726651;28;20287;-76
2022/01/26 06:45:19;;;;;;;27.20;23.65;;;4.20;97.20;;;;;;1726252;28;20619;-77
2022/01/26 06:46:18;;;;;;;28.58;22.60;;;4.20;97.20;;;;;;1726823;28;20204;-76
2022/01/26 06:47:20;;;;;;;30.08;23.90;;;4.20;97.20;;;;;;1726598;28;20244;-75
2022/01/26 06:48:38;;;;;;;30.27;24.30;;;4.20;97.20;;;;;;1726292;28;20237;-76
2022/01/26 06:49:28;;;;;;;28.73;22.83;;;4.20;97.20;;;;;;1726713;28;20204;-76
2022/01/26 06:50:20;;;;;;;27.55;22.85;;;4.10;97.20;;;;;;1727405;28;20544;-75
2022/01/26 06:51:12;;;;;;;27.58;23.15;;;4.10;97.20;;;;;;1727183;28;20204;-75
2022/01/26 06:52:05;;;;;;;30.90;23.23;;;4.10;97.20;;;;;;1727390;28;20223;-77
2022/01/26 06:52:55;;;;;;;28.90;24.77;;;4.10;97.20;;;;;;1727332;28;20224;-76
2022/01/26 06:53:47;;;;;;;36.50;24.50;;;4.20;97.20;;;;;;1727285;28;20203;-76
2022/01/26 06:54:39;;;;;;;30.05;23.65;;;4.20;97.20;;;;;;1726391;28;20231;-75
2022/01/26 06:55:30;;;;;;;28.90;23.20;;;4.20;97.20;;;;;;1720542;28;20232;-76
2022/01/26 06:56:21;;;;;;;37.37;27.10;;;4.20;97.20;;;;;;1726613;28;20204;-76
2022/01/26 06:57:12;;;;;;;33.75;27.60;;;4.10;97.20;;;;;;1727346;28;20482;-77
2022/01/26 06:58:04;;;;;;;33.70;26.67;;;4.10;97.20;;;;;;1727091;28;20200;-76
2022/01/26 06:58:55;;;;;;;30.35;25.42;;;4.10;97.20;;;;;;1727341;28;20232;-77
2022/01/26 06:59:47;;;;;;;35.50;26.87;;;4.10;97.20;;;;;;1726952;28;20212;-77
2022/01/26 07:00:37;;;;;;;35.45;27.50;;;4.00;97.20;;;;;;1726888;28;20204;-76
2022/01/26 07:01:29;;;;;;;31.93;25.63;;;4.00;97.20;;;;;;1727323;28;20203;-76
2022/01/26 07:02:21;;;;;;;32.00;25.95;;;4.00;97.20;;;;;;1727369;28;20582;-76
2022/01/26 07:03:13;;;;;;;32.13;24.17;;;4.00;97.20;;;;;;1727330;28;20197;-75
2022/01/26 07:04:04;;;;;;;32.08;24.42;;;4.00;97.20;;;;;;1727435;28;20204;-75
2022/01/26 07:04:56;;;;;;;30.10;23.98;;;4.00;97.20;;;;;;1728791;28;20220;-74
2022/01/26 07:05:47;;;;;;;32.22;25.30;;;4.10;97.20;;;;;;1728665;28;20207;-75
2022/01/26 07:06:38;;;;;;;28.93;23.67;;;4.10;97.20;;;;;;1728695;28;20227;-75
2022/01/26 07:07:29;;;;;;;30.40;25.02;;;4.10;97.20;;;;;;1728792;28;20455;-76
2022/01/26 07:08:21;;;;;;;30.23;23.63;;;4.10;97.20;;;;;;1728550;28;20309;-76
2022/01/26 07:09:12;;;;;;;28.90;24.20;;;4.10;97.20;;;;;;1728563;28;20659;-77
2022/01/26 07:10:05;;;;;;;30.17;24.60;;;4.10;97.20;;;;;;1728073;28;20725;-76
2022/01/26 07:10:57;;;;;;;33.38;25.55;;;4.10;97.20;;;;;;1728155;28;20247;-76
2022/01/26 07:11:49;;;;;;;30.65;24.35;;;4.10;97.20;;;;;;1728359;28;20262;-76
2022/01/26 07:12:40;;;;;;;32.03;25.23;;;4.10;97.20;;;;;;1728638;28;20709;-76
2022/01/26 07:13:31;;;;;;;33.95;25.38;;;4.00;97.20;;;;;;1728576;28;20231;-76
2022/01/26 07:19:44;;;;;;;34.80;25.70;;;3.90;97.20;;;;;;1728426;28;20663;-76
2022/01/26 07:21:34;;;;;;;29.55;23.98;;;3.80;97.20;;;;;;1701208;29;20626;-76
2022/01/26 07:22:26;;;;;;;29.95;23.73;;;3.90;97.20;;;;;;1710709;28;20741;-76
2022/01/26 07:23:16;;;;;;;27.02;23.02;;;3.90;97.20;;;;;;1728606;28;20211;-75
2022/01/26 07:24:08;;;;;;;29.20;25.47;;;3.90;97.20;;;;;;1728496;28;20200;-75
2022/01/26 07:24:59;;;;;;;27.33;22.60;;;3.90;97.20;;;;;;1728455;28;20935;-75
2022/01/26 07:25:51;;;;;;;30.67;24.90;;;3.90;97.20;;;;;;1728430;28;20667;-75
2022/01/26 07:26:43;;;;;;;32.42;23.90;;;3.90;97.20;;;;;;1728664;28;20211;-75
2022/01/26 07:27:35;;;;;;;29.88;23.77;;;3.90;97.20;;;;;;1728039;28;20206;-75
2022/01/26 07:28:27;;;;;;;28.75;23.85;;;3.90;97.20;;;;;;1728651;28;20208;-75
2022/01/26 07:29:23;;;;;;;30.80;23.17;;;3.90;97.20;;;;;;1728452;28;20203;-75
2022/01/26 07:30:13;;;;;;;29.25;23.38;;;3.90;97.20;;;;;;1728292;28;20205;-75
2022/01/26 07:31:06;;;;;;;29.00;23.87;;;4.00;97.20;;;;;;1728718;28;20212;-75
2022/01/26 07:31:58;;;;;;;27.65;22.52;;;4.00;97.20;;;;;;1728603;28;20208;-74
2022/01/26 07:32:49;;;;;;;32.03;24.98;;;4.00;97.20;;;;;;1728650;28;20731;-76
2022/01/26 07:33:42;;;;;;;28.20;23.50;;;4.10;97.20;;;;;;1728487;28;20664;-76
2022/01/26 07:34:33;;;;;;;27.90;23.90;;;4.10;97.20;;;;;;1727781;28;20562;-76
2022/01/26 07:35:25;;;;;;;30.80;24.00;;;4.10;97.20;;;;;;1727776;28;20217;-76
2022/01/26 07:36:16;;;;;;;30.77;24.65;;;4.10;97.20;;;;;;1727810;28;20474;-76
2022/01/26 07:37:09;;;;;;;32.23;25.27;;;4.10;97.20;;;;;;1728573;28;20315;-76
2022/01/26 07:38:02;;;;;;;30.92;24.05;;;4.00;97.20;;;;;;1727560;28;20241;-75
2022/01/26 07:39:04;;;;;;;31.65;25.00;;;4.00;97.20;;;;;;1727735;28;20203;-77
2022/01/26 07:40:04;;;;;;;30.48;24.60;;;3.90;97.20;;;;;;1727938;28;20204;-76
2022/01/26 07:40:55;;;;;;;27.30;22.95;;;3.90;97.20;;;;;;1728585;28;20213;-76
2022/01/26 07:41:46;;;;;;;30.53;24.20;;;3.90;97.20;;;;;;1728151;28;20234;-75
2022/01/26 07:42:37;;;;;;;27.63;23.33;;;3.90;97.20;;;;;;1728540;28;20212;-76
2022/01/26 07:43:29;;;;;;;28.52;23.10;;;3.90;97.20;;;;;;1728098;28;20287;-76
2022/01/26 07:44:20;;;;;;;27.65;23.65;;;3.90;97.20;;;;;;1728476;28;20200;-76
2022/01/26 07:45:12;;;;;;;27.17;23.43;;;4.00;97.20;;;;;;1728507;28;20201;-76
2022/01/26 07:46:06;;;;;;;27.75;24.23;;;4.00;97.20;;;;;;1728465;28;20210;-76
2022/01/26 07:46:57;;;;;;;28.58;23.30;;;4.00;97.20;;;;;;1728378;28;20192;-76
2022/01/26 07:47:52;;;;;;;28.40;23.90;;;4.00;97.20;;;;;;1728327;28;20247;-76
2022/01/26 07:48:45;;;;;;;30.00;23.75;;;4.00;97.20;;;;;;1728398;28;20262;-77
2022/01/26 07:49:35;;;;;;;33.35;25.15;;;4.10;97.20;;;;;;1728398;28;20223;-77
2022/01/26 07:50:28;;;;;;;30.57;25.40;;;4.10;97.20;;;;;;1728496;28;20238;-77
2022/01/26 07:51:18;;;;;;;29.60;24.98;;;4.10;97.20;;;;;;1728403;28;20208;-76
2022/01/26 07:52:10;;;;;;;30.37;24.90;;;4.10;97.20;;;;;;1728374;28;20200;-75
2022/01/26 07:53:02;;;;;;;31.10;25.98;;;4.10;97.20;;;;;;1728374;28;20192;-76
2022/01/26 07:53:54;;;;;;;31.65;25.50;;;4.10;97.20;;;;;;1728396;28;20219;-76
2022/01/26 07:54:47;;;;;;;29.88;24.25;;;4.10;97.20;;;;;;1726427;28;20224;-76
2022/01/26 07:55:39;;;;;;;30.23;25.48;;;4.10;97.20;;;;;;1721661;28;20504;-77
2022/01/26 07:56:30;;;;;;;25.70;22.48;;;4.10;97.20;;;;;;1721646;28;20217;-77
2022/01/26 07:57:22;;;;;;;25.47;22.17;;;4.10;97.20;;;;;;1721568;28;20221;-76
2022/01/26 07:58:13;;;;;;;27.13;23.13;;;4.10;97.20;;;;;;1721294;28;20460;-76
2022/01/26 07:59:05;;;;;;;27.53;24.47;;;4.00;97.20;;;;;;1721458;28;20256;-76
2022/01/26 07:59:56;;;;;;;26.80;22.75;;;4.00;97.20;;;;;;1724621;28;20556;-77
2022/01/26 08:00:47;;;;;;;25.80;22.40;;;4.10;97.20;;;;;;1728365;28;20579;-75
2022/01/26 08:01:38;;;;;;;29.08;23.33;;;4.10;97.20;;;;;;1728499;28;20212;-77
2022/01/26 08:02:30;;;;;;;26.03;22.23;;;4.10;97.20;;;;;;1728360;28;20200;-76
2022/01/26 08:03:21;;;;;;;25.60;22.90;;;4.00;97.20;;;;;;1728444;28;20239;-75
2022/01/26 08:04:14;;;;;;;27.00;23.40;;;4.00;97.20;;;;;;1728231;28;20211;-77
2022/01/26 08:05:05;;;;;;;27.92;22.83;;;4.00;97.20;;;;;;1728390;28;20694;-77
2022/01/26 08:05:57;;;;;;;30.80;25.40;;;4.00;97.20;;;;;;1728312;28;20196;-76
2022/01/26 08:06:48;;;;;;;25.70;22.77;;;4.10;97.20;;;;;;1728320;28;20205;-76
2022/01/26 08:07:40;;;;;;;26.37;22.73;;;4.10;97.20;;;;;;1727965;28;20212;-76
2022/01/26 08:08:30;;;;;;;25.92;22.67;;;4.10;97.20;;;;;;1728396;28;20200;-76
2022/01/26 08:09:22;;;;;;;27.90;23.10;;;4.20;97.20;;;;;;1728353;28;20200;-76
2022/01/26 08:10:13;;;;;;;28.95;23.48;;;4.20;97.20;;;;;;1728394;28;20458;-76
2022/01/26 08:11:05;;;;;;;25.53;22.70;;;4.20;97.20;;;;;;1728374;28;20291;-77
2022/01/26 08:11:55;;;;;;;24.98;22.27;;;4.10;97.20;;;;;;1728337;28;20213;-75
2022/01/26 08:12:49;;;;;;;25.50;22.03;;;4.10;97.20;;;;;;1728196;28;20215;-76
2022/01/26 08:13:39;;;;;;;27.05;23.33;;;4.10;97.20;;;;;;1728354;28;20200;-76
2022/01/26 08:14:31;;;;;;;28.43;24.47;;;4.10;97.20;;;;;;1728260;28;20260;-77
2022/01/26 08:15:22;;;;;;;26.08;23.05;;;4.10;97.20;;;;;;1728138;28;20227;-76
2022/01/26 08:16:14;;;;;;;26.23;23.45;;;4.10;97.20;;;;;;1727755;28;20200;-77
2022/01/26 08:17:05;;;;;;;27.50;23.15;;;4.20;97.20;;;;;;1728243;28;20509;-76
2022/01/26 08:17:58;;;;;;;26.42;23.10;;;4.10;97.20;;;;;;1727987;28;20623;-76
2022/01/26 08:18:49;;;;;;;30.02;22.90;;;4.20;97.20;;;;;;1728171;28;20679;-77
2022/01/26 08:19:42;;;;;;;26.73;23.43;;;4.20;97.20;;;;;;1728244;28;20635;-76
2022/01/26 08:20:33;;;;;;;28.33;24.25;;;4.20;97.20;;;;;;1728178;28;20444;-76
2022/01/26 08:21:25;;;;;;;30.77;25.07;;;4.20;97.20;;;;;;1728302;28;20204;-76
2022/01/26 08:22:19;;;;;;;27.45;23.58;;;4.20;97.20;;;;;;1728215;28;20454;-76
2022/01/26 08:23:10;;;;;;;26.83;22.13;;;4.30;97.20;;;;;;1728139;28;20255;-76
2022/01/26 08:24:03;;;;;;;27.63;23.60;;;4.20;97.20;;;;;;1728119;28;20208;-76
2022/01/26 08:24:55;;;;;;;28.55;24.38;;;4.20;97.20;;;;;;1728216;28;20224;-76
2022/01/26 08:25:45;;;;;;;27.17;22.52;;;4.20;97.20;;;;;;1728178;28;20208;-77
2022/01/26 08:26:41;;;;;;;26.80;22.77;;;4.20;97.20;;;;;;1728214;28;20207;-76
2022/01/26 08:27:39;;;;;;;27.00;22.60;;;4.20;97.20;;;;;;1728278;28;20338;-76
2022/01/26 08:28:35;;;;;;;26.85;22.88;;;4.20;97.20;;;;;;1728105;28;20609;-76
2022/01/26 08:29:30;;;;;;;27.70;23.92;;;4.20;97.20;;;;;;1728186;28;20728;-76
2022/01/26 08:30:22;;;;;;;28.42;23.30;;;4.20;97.20;;;;;;1728114;28;20196;-76
2022/01/26 08:31:13;;;;;;;28.33;23.95;;;4.10;97.20;;;;;;1728088;28;20197;-76
2022/01/26 08:32:05;;;;;;;28.45;23.70;;;4.10;97.20;;;;;;1727807;28;20193;-76
2022/01/26 08:32:56;;;;;;;28.05;23.25;;;4.20;97.20;;;;;;1728084;28;20207;-76
2022/01/26 08:33:48;;;;;;;28.87;22.90;;;4.20;97.20;;;;;;1728173;28;20204;-76
2022/01/26 08:34:39;;;;;;;27.45;23.63;;;4.20;97.20;;;;;;1728091;28;20323;-76
2022/01/26 08:35:33;;;;;;;29.52;23.35;;;4.20;97.20;;;;;;1728177;28;20224;-75
2022/01/26 08:36:23;;;;;;;27.60;23.35;;;4.30;97.20;;;;;;1728170;28;20411;-76
2022/01/26 08:37:15;;;;;;;27.23;23.07;;;4.30;97.20;;;;;;1728163;28;20220;-76
2022/01/26 08:38:06;;;;;;;27.10;23.17;;;4.30;97.20;;;;;;1727758;28;20253;-76
2022/01/26 08:38:58;;;;;;;27.53;22.70;;;4.30;97.20;;;;;;1728055;28;20205;-76
2022/01/26 08:39:48;;;;;;;27.42;22.75;;;4.30;97.20;;;;;;1728228;28;20583;-76
2022/01/26 08:40:40;;;;;;;26.43;23.03;;;4.30;97.20;;;;;;1728213;28;20201;-76
2022/01/26 08:41:31;;;;;;;29.02;24.13;;;4.30;97.20;;;;;;1728164;28;20205;-76
2022/01/26 08:42:23;;;;;;;28.02;24.08;;;4.30;97.20;;;;;;1728123;28;20207;-76
2022/01/26 08:43:15;;;;;;;28.98;24.20;;;4.30;97.20;;;;;;1728120;28;20236;-76
2022/01/26 08:44:05;;;;;;;30.02;24.38;;;4.30;97.20;;;;;;1728048;28;20228;-76
2022/01/26 08:44:57;;;;;;;29.60;23.80;;;4.30;97.20;;;;;;1728010;28;20228;-76
2022/01/26 08:45:48;;;;;;;27.88;24.45;;;4.30;97.20;;;;;;1728107;28;20447;-76
2022/01/26 08:46:40;;;;;;;26.87;23.27;;;4.30;97.20;;;;;;1728054;28;20204;-76
2022/01/26 08:47:30;;;;;;;27.48;23.73;;;4.30;97.20;;;;;;1728154;28;20197;-76
2022/01/26 08:48:23;;;;;;;29.77;24.73;;;4.30;97.20;;;;;;1727456;28;20195;-76
2022/01/26 08:49:15;;;;;;;28.58;25.23;;;4.30;97.20;;;;;;1727982;28;20204;-76
2022/01/26 08:50:08;;;;;;;28.30;23.50;;;4.30;97.20;;;;;;1728004;28;20255;-76
2022/01/26 08:51:00;;;;;;;27.77;23.60;;;4.30;97.20;;;;;;1728062;28;20240;-76
2022/01/26 08:51:52;;;;;;;29.23;24.30;;;4.30;97.20;;;;;;1728117;28;20204;-76
2022/01/26 08:52:44;;;;;;;30.40;25.48;;;4.30;97.20;;;;;;1727939;28;20205;-76
2022/01/26 08:53:36;;;;;;;27.85;22.70;;;4.30;97.20;;;;;;1728006;28;20240;-76
2022/01/26 08:54:27;;;;;;;30.02;24.33;;;4.30;97.20;;;;;;1727824;28;20679;-76
2022/01/26 08:55:19;;;;;;;30.25;24.23;;;4.20;97.20;;;;;;1721878;28;20208;-76
2022/01/26 08:56:09;;;;;;;29.38;23.88;;;4.20;97.20;;;;;;1721297;28;20205;-76
2022/01/26 08:57:01;;;;;;;28.03;24.73;;;4.20;97.20;;;;;;1721170;28;20197;-76
2022/01/26 08:57:52;;;;;;;28.33;23.48;;;4.20;97.20;;;;;;1721019;28;20209;-76
2022/01/26 08:58:44;;;;;;;29.50;24.65;;;4.20;97.20;;;;;;1721134;28;20284;-76
2022/01/26 08:59:35;;;;;;;27.92;23.63;;;4.10;97.20;;;;;;1721121;28;20220;-76
2022/01/26 09:00:26;;;;;;;29.52;24.80;;;4.10;97.20;;;;;;1721290;28;20624;-76
2022/01/26 09:01:17;;;;;;;30.20;24.63;;;4.10;97.20;;;;;;1721289;28;20240;-76
2022/01/26 09:02:09;;;;;;;30.20;24.63;;;4.10;97.20;;;;;;1721224;28;20201;-76
2022/01/26 09:03:00;;;;;;;29.63;25.27;;;4.10;97.20;;;;;;1721143;28;20255;-76
2022/01/26 09:03:51;;;;;;;33.90;26.80;;;4.10;97.20;;;;;;1721266;28;20201;-76
2022/01/26 09:04:42;;;;;;;28.40;24.60;;;4.10;97.20;;;;;;1727682;28;20244;-77
2022/01/26 09:05:34;;;;;;;27.73;24.67;;;4.10;97.20;;;;;;1728368;28;20207;-76
2022/01/26 09:06:26;;;;;;;28.88;24.70;;;4.10;97.20;;;;;;1727978;28;20481;-76
2022/01/26 09:07:20;;;;;;;32.35;25.10;;;4.10;97.20;;;;;;1727966;28;20278;-76
2022/01/26 09:08:11;;;;;;;32.25;26.15;;;4.10;97.20;;;;;;1727573;28;20209;-76
2022/01/26 09:09:06;;;;;;;28.90;24.80;;;4.20;97.20;;;;;;1727912;28;20193;-76
2022/01/26 09:10:00;;;;;;;30.98;25.27;;;4.20;97.20;;;;;;1727993;28;20448;-76
2022/01/26 09:10:56;;;;;;;30.20;24.85;;;4.20;97.20;;;;;;1727945;28;20266;-76
2022/01/26 09:11:49;;;;;;;30.48;25.17;;;4.20;97.20;;;;;;1728088;28;20208;-76
2022/01/26 09:12:43;;;;;;;27.65;24.70;;;4.20;97.20;;;;;;1727953;28;20291;-76
2022/01/26 09:13:35;;;;;;;32.55;25.75;;;4.20;97.20;;;;;;1727899;28;20271;-76
2022/01/26 09:14:29;;;;;;;30.83;25.63;;;4.20;97.20;;;;;;1727755;28;20234;-76
2022/01/26 09:15:26;;;;;;;29.05;25.58;;;4.20;97.20;;;;;;1728055;28;20760;-76
2022/01/26 09:16:19;;;;;;;31.40;25.83;;;4.20;97.20;;;;;;1728011;28;20288;-76
2022/01/26 09:17:11;;;;;;;29.75;26.20;;;4.20;97.20;;;;;;1727922;28;20204;-77
2022/01/26 09:18:06;;;;;;;28.98;24.85;;;4.20;97.20;;;;;;1727520;28;20204;-76
2022/01/26 09:19:02;;;;;;;32.22;26.15;;;4.20;97.20;;;;;;1727866;28;20734;-76
2022/01/26 09:19:56;;;;;;;30.45;24.67;;;4.20;97.20;;;;;;1727687;28;20196;-77
2022/01/26 09:20:48;;;;;;;29.77;24.60;;;4.20;97.20;;;;;;1727220;28;20472;-76
2022/01/26 09:21:40;;;;;;;31.30;26.17;;;4.30;97.20;;;;;;1727943;28;20623;-77
2022/01/26 09:22:32;;;;;;;33.00;26.42;;;4.30;97.20;;;;;;1727932;28;20320;-76
2022/01/26 09:23:23;;;;;;;29.42;24.23;;;4.30;97.20;;;;;;1727899;28;20689;-77
2022/01/26 09:24:15;;;;;;;30.70;26.20;;;4.30;97.20;;;;;;1727838;28;20656;-76
2022/01/26 09:25:07;;;;;;;29.95;24.70;;;4.30;97.20;;;;;;1727682;28;20664;-76
2022/01/26 09:25:58;;;;;;;29.92;24.98;;;4.40;97.20;;;;;;1727808;28;20236;-76
2022/01/26 09:26:50;;;;;;;32.43;25.53;;;4.40;97.20;;;;;;1727319;28;20203;-76
2022/01/26 09:27:42;;;;;;;29.73;26.13;;;4.30;97.20;;;;;;1727440;28;20455;-76
2022/01/26 09:28:33;;;;;;;30.63;25.27;;;4.30;97.20;;;;;;1727863;28;20219;-76
2022/01/26 09:29:25;;;;;;;32.43;26.40;;;4.30;97.20;;;;;;1727802;28;20208;-76
2022/01/26 09:30:16;;;;;;;31.38;26.08;;;4.30;97.20;;;;;;1727687;28;20205;-76
2022/01/26 09:31:07;;;;;;;29.23;24.85;;;4.30;97.20;;;;;;1727769;28;20208;-77
2022/01/26 09:31:59;;;;;;;31.55;25.95;;;4.30;97.20;;;;;;1727813;28;20675;-76
2022/01/26 09:32:50;;;;;;;30.08;26.77;;;4.30;97.20;;;;;;1727817;28;20283;-76
2022/01/26 09:33:42;;;;;;;32.73;26.83;;;4.30;97.20;;;;;;1727764;28;20715;-76
2022/01/26 09:34:35;;;;;;;29.98;25.38;;;4.40;97.20;;;;;;1727765;28;20228;-77
2022/01/26 09:35:27;;;;;;;32.83;26.40;;;4.40;97.20;;;;;;1727724;28;20205;-76
2022/01/26 09:36:18;;;;;;;31.77;26.95;;;4.40;97.20;;;;;;1727403;28;20589;-76
2022/01/26 09:37:13;;;;;;;29.23;24.50;;;4.40;97.20;;;;;;1727808;28;20266;-76
2022/01/26 09:38:03;;;;;;;32.72;26.33;;;4.40;97.20;;;;;;1727335;28;20256;-76
2022/01/26 09:38:55;;;;;;;33.13;25.80;;;4.30;97.20;;;;;;1727702;28;20201;-76
2022/01/26 09:39:48;;;;;;;30.40;25.52;;;4.30;97.20;;;;;;1727734;28;20193;-76
2022/01/26 09:40:39;;;;;;;34.30;27.33;;;4.40;97.20;;;;;;1727651;28;20216;-76
2022/01/26 09:41:31;;;;;;;31.37;26.60;;;4.30;97.20;;;;;;1727701;28;20292;-76
2022/01/26 09:42:23;;;;;;;31.75;28.23;;;4.40;97.20;;;;;;1727726;28;20554;-77
2022/01/26 09:43:16;;;;;;;32.20;27.13;;;4.40;97.20;;;;;;1727768;28;20208;-76
2022/01/26 09:44:08;;;;;;;32.63;27.23;;;4.40;97.20;;;;;;1727705;28;20723;-76
2022/01/26 09:45:00;;;;;;;31.30;27.02;;;4.40;97.20;;;;;;1727744;28;20208;-76
2022/01/26 09:45:52;;;;;;;34.45;27.48;;;4.40;97.20;;;;;;1727621;28;20215;-76
2022/01/26 09:46:45;;;;;;;31.73;26.35;;;4.40;97.20;;;;;;1727560;28;20601;-76
2022/01/26 09:47:37;;;;;;;34.03;26.92;;;4.40;97.20;;;;;;1727182;28;20200;-76
2022/01/26 09:48:28;;;;;;;32.50;25.85;;;4.30;97.20;;;;;;1727622;28;20243;-76
2022/01/26 09:49:20;;;;;;;33.83;26.93;;;4.30;97.20;;;;;;1727622;28;20215;-76
2022/01/26 09:50:11;;;;;;;33.47;26.95;;;4.30;97.20;;;;;;1727713;28;20811;-77
2022/01/26 09:51:03;;;;;;;33.33;26.80;;;4.30;97.20;;;;;;1727610;28;20201;-77
2022/01/26 09:51:53;;;;;;;32.90;27.38;;;4.30;97.20;;;;;;1727685;28;20939;-77
2022/01/26 09:52:48;;;;;;;32.63;26.80;;;4.20;97.20;;;;;;1727620;28;20620;-77
2022/01/26 09:53:39;;;;;;;31.55;26.67;;;4.20;97.20;;;;;;1727669;28;20204;-76
2022/01/26 09:54:31;;;;;;;33.97;29.43;;;4.20;97.20;;;;;;1727696;28;20220;-76
2022/01/26 09:55:22;;;;;;;36.25;28.00;;;4.10;97.20;;;;;;1720938;28;20457;-76
2022/01/26 09:56:13;;;;;;;32.77;27.10;;;4.10;97.20;;;;;;1720791;28;20281;-76
2022/01/26 09:57:05;;;;;;;33.78;27.70;;;4.00;97.20;;;;;;1720811;28;20460;-76
2022/01/26 09:57:58;;;;;;;33.22;26.40;;;4.00;97.20;;;;;;1720525;28;20225;-76
2022/01/26 09:58:50;;;;;;;33.42;26.83;;;4.00;97.20;;;;;;1720739;28;20287;-76
2022/01/26 09:59:42;;;;;;;32.40;27.83;;;4.00;97.20;;;;;;1720817;28;20209;-76
2022/01/26 10:00:33;;;;;;;32.20;25.88;;;4.00;97.20;;;;;;1720854;28;20209;-76
2022/01/26 10:01:25;;;;;;;31.20;25.37;;;4.00;97.20;;;;;;1723650;28;20214;-76
2022/01/26 10:02:21;;;;;;;32.47;27.13;;;4.00;97.20;;;;;;1727657;28;20207;-76
2022/01/26 10:03:15;;;;;;;33.72;27.65;;;3.90;97.20;;;;;;1727657;28;20212;-76
2022/01/26 10:04:06;;;;;;;36.08;27.60;;;3.90;97.20;;;;;;1727605;28;20266;-76
2022/01/26 10:05:03;;;;;;;35.40;29.10;;;3.80;97.20;;;;;;1727627;28;20217;-76
2022/01/26 10:05:56;;;;;;;36.15;30.73;;;3.80;97.20;;;;;;1727708;28;20452;-76
2022/01/26 10:06:58;;;;;;;35.42;28.33;;;3.80;97.20;;;;;;1727519;28;20204;-77
2022/01/26 10:08:02;;;;;;;37.88;30.00;;;3.80;97.20;;;;;;1727317;28;20211;-76
2022/01/26 10:09:15;;;;;;;36.42;27.83;;;3.80;97.20;;;;;;1727665;28;20231;-76
2022/01/26 10:10:31;;;;;;;34.38;28.88;;;3.70;97.20;;;;;;1727301;28;20209;-76
2022/01/26 10:16:25;;;;;;;34.97;28.85;;;3.80;97.20;;;;;;1727923;28;20729;-76
2022/01/26 10:17:28;;;;;;;33.70;28.33;;;3.80;97.20;;;;;;1727567;28;20780;-76
2022/01/26 10:18:21;;;;;;;35.03;28.45;;;3.90;97.20;;;;;;1727486;28;20663;-76
2022/01/26 10:19:11;;;;;;;34.08;28.90;;;3.80;97.20;;;;;;1727641;28;20219;-76
2022/01/26 10:20:06;;;;;;;36.23;28.70;;;3.80;97.20;;;;;;1727781;28;20205;-77
2022/01/26 10:20:59;;;;;;;34.13;27.63;;;3.80;97.20;;;;;;1727712;28;20200;-76
2022/01/26 10:21:52;;;;;;;38.30;28.73;;;3.80;97.20;;;;;;1727513;28;20207;-76
2022/01/26 10:22:44;;;;;;;32.28;26.60;;;3.70;97.20;;;;;;1727512;28;20201;-76
2022/01/26 10:23:40;;;;;;;32.53;26.92;;;3.70;97.20;;;;;;1727644;28;20670;-76
2022/01/26 10:24:33;;;;;;;33.47;26.10;;;3.70;97.20;;;;;;1727498;28;20225;-77
2022/01/26 10:25:24;;;;;;;30.58;26.67;;;3.60;97.20;;;;;;1727512;28;20196;-76
2022/01/26 10:26:18;;;;;;;32.53;26.95;;;3.60;97.20;;;;;;1727452;28;20236;-76
2022/01/26 10:27:10;;;;;;;30.58;25.17;;;3.60;97.20;;;;;;1727432;28;20200;-77
2022/01/26 10:28:01;;;;;;;33.63;26.40;;;3.60;97.20;;;;;;1727329;28;20607;-76
2022/01/26 10:28:56;;;;;;;39.20;29.20;;;3.50;97.20;;;;;;1727465;28;20247;-77
2022/01/26 10:29:46;;;;;;;34.28;28.45;;;3.50;97.20;;;;;;1727563;28;20342;-77
2022/01/26 10:30:44;;;;;;;35.17;28.23;;;3.50;97.20;;;;;;1727261;28;20204;-76
2022/01/26 10:31:38;;;;;;;35.00;28.73;;;3.50;97.20;;;;;;1727554;28;20200;-76
2022/01/26 10:32:33;;;;;;;36.95;28.85;;;3.50;97.20;;;;;;1727401;28;20365;-76
2022/01/26 10:33:25;;;;;;;34.50;28.83;;;3.50;97.20;;;;;;1727225;28;20234;-76
2022/01/26 10:34:17;;;;;;;32.58;26.92;;;3.50;97.20;;;;;;1720681;28;20240;-76
2022/01/26 10:35:10;;;;;;;33.10;27.63;;;3.40;97.20;;;;;;1720595;28;20204;-76
2022/01/26 10:36:02;;;;;;;31.88;26.50;;;3.40;97.20;;;;;;1720748;28;20702;-76
2022/01/26 10:36:57;;;;;;;31.60;26.80;;;3.40;97.20;;;;;;1720647;28;20200;-76
2022/01/26 10:37:51;;;;;;;31.00;26.23;;;3.40;97.20;;;;;;1720222;28;20197;-76
2022/01/26 10:38:55;;;;;;;35.78;27.23;;;3.40;97.20;;;;;;1719821;28;20258;-77
2022/01/26 10:39:50;;;;;;;28.35;25.25;;;3.30;97.20;;;;;;1720748;28;20243;-76
2022/01/26 10:40:42;;;;;;;32.72;25.80;;;3.30;97.20;;;;;;1720580;28;20197;-76